Time;durP1;ratioP1;P1;durP2;ratioP2;P2;SDS_P1;SDS_P2;PMS_P1;PMS_P2;Temp;Humidity;BMP_temperature;BMP_pressure;BME280_temperature;BME280_humidity;BME280_pressure;Samples;Min_cycle;Max_cycle;Signal;HPM_P1;HPM_P2
2022/08/30 00:02:04;;;;;;;2.93;1.60;;;;;;;26.73;43.05;95235.16;5051383;28;20286;-71
2022/08/30 00:04:32;;;;;;;0.90;0.90;;;;;;;26.67;43.05;95231.19;5054098;28;20197;-74
2022/08/30 00:07:01;;;;;;;0.50;0.50;;;;;;;26.68;42.93;95229.25;5060193;28;20230;-71
2022/08/30 00:09:28;;;;;;;0.87;0.87;;;;;;;26.64;43.29;95229.16;5057253;28;20211;-67
2022/08/30 00:11:54;;;;;;;0.80;0.80;;;;;;;26.74;43.36;95209.88;5070266;28;20234;-68
2022/08/30 00:14:21;;;;;;;0.83;0.83;;;;;;;26.74;43.32;95220.63;5059681;28;20201;-68
2022/08/30 00:16:49;;;;;;;0.70;0.70;;;;;;;26.79;43.11;95217.66;5054437;28;20301;-70
2022/08/30 00:19:16;;;;;;;1.07;1.07;;;;;;;26.48;44.31;95225.72;5048486;28;20192;-60
2022/08/30 00:21:43;;;;;;;2.00;1.67;;;;;;;26.61;44.23;95219.13;5067892;28;20184;-69
2022/08/30 00:24:10;;;;;;;2.57;1.57;;;;;;;26.60;44.56;95222.97;5058299;28;20201;-65
2022/08/30 00:26:37;;;;;;;1.10;1.10;;;;;;;26.79;44.24;95214.97;5064318;28;20263;-68
2022/08/30 00:29:03;;;;;;;1.40;0.97;;;;;;;26.55;45.00;95217.81;5061362;28;20204;-62
2022/08/30 00:31:30;;;;;;;0.53;0.53;;;;;;;26.53;45.08;95220.06;5056849;28;20184;-69
2022/08/30 00:33:57;;;;;;;1.53;1.43;;;;;;;26.30;44.87;95221.81;5069804;28;20218;-66
2022/08/30 00:36:25;;;;;;;0.53;0.53;;;;;;;26.32;44.74;95224.94;5050628;28;20220;-67
2022/08/30 00:38:53;;;;;;;1.20;1.10;;;;;;;26.11;45.46;95235.16;5038771;28;20283;-68
2022/08/30 00:41:21;;;;;;;3.40;1.90;;;;;;;26.19;45.55;95231.53;5047237;28;20671;-67
2022/08/30 00:43:48;;;;;;;1.03;0.73;;;;;;;26.44;45.02;95232.91;5060337;28;20227;-66
2022/08/30 00:46:15;;;;;;;0.43;0.43;;;;;;;26.51;44.94;95235.00;5042707;28;20295;-65
2022/08/30 00:48:47;;;;;;;0.37;0.37;;;;;;;26.38;45.50;95231.63;5053613;28;20320;-69
2022/08/30 00:51:15;;;;;;;1.70;1.27;;;;;;;26.64;44.95;95231.84;5030321;28;20636;-67
2022/08/30 00:53:47;;;;;;;1.03;1.03;;;;;;;26.49;45.44;95240.72;5056628;28;20266;-66
2022/08/30 00:56:14;;;;;;;0.93;0.93;;;;;;;26.32;45.48;95224.16;5036069;28;20231;-65
2022/08/30 00:58:45;;;;;;;0.60;0.60;;;;;;;26.53;45.42;95236.19;5051087;28;20297;-65
2022/08/30 01:01:13;;;;;;;0.77;0.77;;;;;;;26.21;46.03;95229.28;5078591;28;20210;-67
2022/08/30 01:03:42;;;;;;;2.47;1.50;;;;;;;26.13;46.06;95232.88;5079170;28;20210;-64
2022/08/30 01:06:09;;;;;;;6.13;1.27;;;;;;;26.04;46.25;95225.00;5064754;28;20205;-63
2022/08/30 01:08:37;;;;;;;0.53;0.53;;;;;;;26.00;46.13;95234.09;5067630;28;20199;-65
2022/08/30 01:11:04;;;;;;;0.93;0.93;;;;;;;25.89;46.50;95223.03;5036799;28;20274;-66
2022/08/30 01:13:33;;;;;;;0.80;0.77;;;;;;;25.85;46.46;95232.13;5053758;28;20207;-65
2022/08/30 01:16:01;;;;;;;1.93;1.20;;;;;;;26.09;46.19;95224.00;5036124;28;20266;-65
2022/08/30 01:18:30;;;;;;;1.20;1.13;;;;;;;26.19;46.38;95219.97;5037528;28;20564;-65
2022/08/30 01:21:06;;;;;;;1.30;1.20;;;;;;;26.20;46.23;95222.34;5056699;28;20200;-67
2022/08/30 01:23:36;;;;;;;0.63;0.63;;;;;;;26.09;46.36;95226.66;5050413;28;20585;-66
2022/08/30 01:26:05;;;;;;;0.73;0.73;;;;;;;26.14;46.37;95226.41;5065348;28;20204;-66
2022/08/30 01:28:33;;;;;;;1.50;1.40;;;;;;;26.20;45.90;95227.72;5039465;28;20325;-65
2022/08/30 01:31:00;;;;;;;1.13;1.13;;;;;;;26.18;46.27;95224.59;5057239;28;20290;-65
2022/08/30 01:33:28;;;;;;;1.70;1.60;;;;;;;26.38;45.63;95231.63;5066702;28;20196;-72
2022/08/30 01:36:01;;;;;;;1.37;1.30;;;;;;;26.01;46.64;95225.69;5068472;28;20207;-69
2022/08/30 01:38:35;;;;;;;1.83;1.27;;;;;;;25.79;46.96;95228.13;5052537;28;20200;-64
2022/08/30 01:41:13;;;;;;;1.10;1.10;;;;;;;25.98;46.59;95225.59;5042638;28;20235;-73
2022/08/30 01:43:41;;;;;;;1.40;1.30;;;;;;;25.98;46.98;95222.91;5033029;28;20234;-69
2022/08/30 01:46:10;;;;;;;0.93;0.93;;;;;;;26.03;46.55;95211.91;5063005;28;20192;-67
2022/08/30 01:48:42;;;;;;;5.33;3.70;;;;;;;26.08;46.55;95219.72;5066723;28;20197;-66
2022/08/30 01:51:23;;;;;;;2.47;1.77;;;;;;;25.94;46.94;95213.97;5034246;28;20197;-71
2022/08/30 01:53:50;;;;;;;1.17;0.93;;;;;;;26.14;46.59;95218.34;5072652;28;20192;-68
2022/08/30 01:56:17;;;;;;;1.17;1.17;;;;;;;25.92;47.28;95227.75;5045467;28;20292;-65
2022/08/30 01:58:44;;;;;;;0.97;0.97;;;;;;;26.01;47.17;95219.50;5048416;28;20650;-64
2022/08/30 02:01:14;;;;;;;0.53;0.53;;;;;;;25.96;46.93;95211.72;5060871;28;20219;-69
2022/08/30 02:03:43;;;;;;;0.70;0.70;;;;;;;25.93;47.32;95213.19;5069383;28;20195;-65
2022/08/30 02:06:13;;;;;;;1.40;1.30;;;;;;;25.93;47.33;95212.38;5047513;28;20678;-67
2022/08/30 02:08:40;;;;;;;23.67;1.70;;;;;;;25.88;47.49;95215.34;5058066;28;20204;-68
2022/08/30 02:11:08;;;;;;;1.60;1.20;;;;;;;25.87;47.37;95192.31;5071873;28;20658;-67
2022/08/30 02:13:38;;;;;;;1.30;1.17;;;;;;;26.05;46.89;95207.00;5059117;28;20833;-68
2022/08/30 02:16:08;;;;;;;1.97;1.57;;;;;;;25.76;47.60;95205.47;5057635;28;20207;-69
2022/08/30 02:18:36;;;;;;;2.20;1.33;;;;;;;25.82;47.61;95206.00;5072011;28;20301;-66
2022/08/30 02:21:03;;;;;;;3.23;1.33;;;;;;;25.57;47.88;95199.16;5066601;28;20216;-64
2022/08/30 02:23:30;;;;;;;1.03;1.00;;;;;;;25.73;47.77;95208.06;5041081;28;20196;-66
2022/08/30 02:25:58;;;;;;;1.53;1.43;;;;;;;25.85;47.75;95211.44;5062378;28;20199;-68
2022/08/30 02:28:24;;;;;;;0.63;0.63;;;;;;;25.72;48.07;95214.53;5060459;28;20199;-66
2022/08/30 02:30:52;;;;;;;2.00;1.87;;;;;;;25.56;48.02;95211.03;5042430;28;20196;-70
2022/08/30 02:33:19;;;;;;;0.67;0.67;;;;;;;25.82;47.80;95211.34;5051518;28;20232;-68
2022/08/30 02:35:46;;;;;;;2.10;1.33;;;;;;;25.85;47.26;95199.91;5065188;28;20295;-64
2022/08/30 02:38:13;;;;;;;1.17;1.13;;;;;;;25.78;47.73;95205.09;5043350;28;20273;-67
2022/08/30 02:40:40;;;;;;;1.13;1.13;;;;;;;25.81;47.51;95204.41;5060211;28;20204;-66
2022/08/30 02:43:07;;;;;;;5.00;2.70;;;;;;;25.70;47.89;95203.34;5041359;28;20223;-69
2022/08/30 02:45:34;;;;;;;1.00;0.73;;;;;;;25.74;47.59;95198.84;5061795;28;20195;-64
2022/08/30 02:48:01;;;;;;;0.73;0.73;;;;;;;25.86;48.06;95202.25;5065397;28;20211;-67
2022/08/30 02:50:30;;;;;;;1.03;0.97;;;;;;;25.72;47.59;95196.53;5043854;28;20577;-66
2022/08/30 02:52:56;;;;;;;1.27;1.17;;;;;;;25.78;47.64;95207.78;5060253;28;20208;-65
2022/08/30 02:55:24;;;;;;;0.67;0.67;;;;;;;25.86;47.60;95199.56;5065309;28;20243;-67
2022/08/30 02:57:50;;;;;;;1.57;1.47;;;;;;;25.72;47.74;95196.53;5040729;28;20223;-67
2022/08/30 03:00:19;;;;;;;1.90;1.07;;;;;;;25.53;48.31;95187.56;5063750;28;20203;-64
2022/08/30 03:02:48;;;;;;;1.77;1.67;;;;;;;25.46;48.37;95195.41;5039669;28;20260;-69
2022/08/30 03:05:16;;;;;;;1.30;0.87;;;;;;;25.67;48.23;95198.66;5051381;28;20300;-67
2022/08/30 03:07:46;;;;;;;1.13;1.13;;;;;;;25.63;47.88;95193.22;5045047;28;20191;-63
2022/08/30 03:10:14;;;;;;;1.20;1.10;;;;;;;25.62;47.91;95201.63;5031782;28;20239;-68
2022/08/30 03:12:41;;;;;;;0.73;0.73;;;;;;;25.73;47.50;95202.69;5059416;28;20247;-68
2022/08/30 03:15:11;;;;;;;0.97;0.97;;;;;;;25.71;47.61;95204.91;5031556;28;20205;-64
2022/08/30 03:17:39;;;;;;;0.70;0.70;;;;;;;25.55;47.82;95206.75;5059324;28;20247;-66
2022/08/30 03:20:07;;;;;;;4.27;2.77;;;;;;;25.71;47.20;95199.56;5052455;28;20215;-68
2022/08/30 03:22:35;;;;;;;1.03;1.03;;;;;;;25.69;47.44;95207.16;5054349;28;20250;-65
2022/08/30 03:25:03;;;;;;;1.93;1.10;;;;;;;25.56;47.91;95208.34;5066796;28;20189;-65
2022/08/30 03:27:30;;;;;;;1.30;1.17;;;;;;;25.69;47.40;95212.53;5064007;28;20227;-65
2022/08/30 03:29:57;;;;;;;1.10;1.00;;;;;;;25.46;47.92;95209.59;5046167;28;20203;-65
2022/08/30 03:32:24;;;;;;;0.60;0.60;;;;;;;25.34;47.97;95214.19;5043542;28;20288;-62
2022/08/30 03:34:51;;;;;;;0.63;0.63;;;;;;;25.39;48.05;95216.66;5050919;28;20196;-69
2022/08/30 03:37:19;;;;;;;2.50;2.30;;;;;;;24.93;49.05;95217.97;5062662;28;20310;-70
2022/08/30 03:39:51;;;;;;;2.63;1.83;;;;;;;24.84;49.57;95217.31;5056617;28;20231;-68
2022/08/30 03:42:18;;;;;;;5.13;1.90;;;;;;;25.20;48.50;95216.47;5048345;28;20200;-63
2022/08/30 03:44:47;;;;;;;5.10;1.17;;;;;;;25.50;47.72;95205.13;5066339;28;20319;-70
2022/08/30 03:47:14;;;;;;;3.63;2.00;;;;;;;25.44;47.89;95213.72;5071035;28;20199;-65
2022/08/30 03:49:41;;;;;;;1.23;1.10;;;;;;;25.59;47.62;95204.97;5054096;28;20192;-67
2022/08/30 03:52:09;;;;;;;0.77;0.73;;;;;;;25.58;47.30;95206.84;5038209;28;20196;-70
2022/08/30 03:54:37;;;;;;;1.37;1.00;;;;;;;25.63;47.13;95209.31;5050839;28;20204;-70
2022/08/30 03:57:04;;;;;;;2.00;1.80;;;;;;;25.65;47.25;95217.81;5033581;28;20220;-64
2022/08/30 03:59:31;;;;;;;3.37;2.17;;;;;;;25.55;47.17;95206.75;5050330;28;20604;-65
2022/08/30 04:01:58;;;;;;;0.97;0.97;;;;;;;25.23;47.89;95213.13;5044369;28;20188;-68
2022/08/30 04:04:25;;;;;;;2.27;1.93;;;;;;;24.63;49.58;95214.75;5064749;28;20647;-66
2022/08/30 04:06:52;;;;;;;1.60;1.37;;;;;;;24.54;49.90;95214.06;5049881;28;20192;-68
2022/08/30 04:09:19;;;;;;;1.33;1.00;;;;;;;24.62;49.66;95212.41;5064345;28;20195;-68
2022/08/30 04:11:46;;;;;;;1.40;1.30;;;;;;;24.71;49.17;95216.56;5056722;28;20192;-66
2022/08/30 04:14:13;;;;;;;0.77;0.77;;;;;;;24.44;49.77;95232.50;5056709;28;20212;-68
2022/08/30 04:16:41;;;;;;;0.83;0.83;;;;;;;24.36;49.87;95220.00;5062647;28;20890;-66
2022/08/30 04:19:08;;;;;;;1.00;0.97;;;;;;;24.29;49.94;95233.94;5050249;28;20193;-66
2022/08/30 04:21:35;;;;;;;0.93;0.53;;;;;;;24.08;50.42;95230.56;5036185;28;20230;-67
2022/08/30 04:24:10;;;;;;;1.13;0.90;;;;;;;24.40;49.87;95237.72;5050101;28;20207;-66
2022/08/30 04:26:37;;;;;;;0.80;0.80;;;;;;;24.51;49.48;95233.50;5065307;28;20196;-70
2022/08/30 04:29:05;;;;;;;0.60;0.60;;;;;;;24.76;48.85;95243.13;5061154;28;20584;-71
2022/08/30 04:31:32;;;;;;;0.63;0.63;;;;;;;24.95;48.21;95237.97;5033969;28;20192;-64
2022/08/30 04:33:59;;;;;;;0.70;0.70;;;;;;;25.01;48.03;95233.97;5048648;28;20193;-68
2022/08/30 04:36:26;;;;;;;0.90;0.73;;;;;;;25.13;48.20;95243.09;5050599;28;20282;-67
2022/08/30 04:38:53;;;;;;;0.80;0.80;;;;;;;25.31;48.13;95239.03;5055938;28;20359;-68
2022/08/30 04:41:23;;;;;;;3.73;1.57;;;;;;;25.33;48.13;95236.78;5037707;28;20230;-63
2022/08/30 04:43:50;;;;;;;1.70;0.90;;;;;;;25.53;47.58;95230.50;5049783;28;20331;-65
2022/08/30 04:46:17;;;;;;;0.80;0.80;;;;;;;25.45;47.40;95236.78;5059021;28;20200;-66
2022/08/30 04:48:45;;;;;;;1.77;1.67;;;;;;;25.36;48.07;95246.84;5061802;28;20311;-69
2022/08/30 04:51:15;;;;;;;16.43;9.37;;;;;;;25.66;47.93;95251.56;5030182;28;20243;-70
2022/08/30 04:53:43;;;;;;;8.13;5.57;;;;;;;25.66;47.35;95253.47;5042812;28;20195;-73
2022/08/30 04:56:21;;;;;;;4.97;4.33;;;;;;;25.41;47.89;95254.66;5044097;28;20193;-68
2022/08/30 04:58:50;;;;;;;1.30;1.20;;;;;;;25.54;47.83;95258.88;5032412;28;20578;-73
2022/08/30 05:01:23;;;;;;;0.50;0.50;;;;;;;25.55;47.71;95265.81;5049895;28;20214;-73
2022/08/30 05:03:52;;;;;;;1.33;1.23;;;;;;;25.53;48.06;95262.69;5066230;28;20211;-72
2022/08/30 05:06:19;;;;;;;3.00;1.40;;;;;;;25.78;47.73;95266.84;5060412;28;20193;-72
2022/08/30 05:08:46;;;;;;;0.83;0.67;;;;;;;25.89;47.27;95270.59;5049335;28;20232;-72
2022/08/30 05:11:14;;;;;;;1.47;1.37;;;;;;;25.90;47.38;95261.41;5056910;28;20196;-69
2022/08/30 05:13:44;;;;;;;6.47;2.93;;;;;;;25.84;47.47;95268.94;5055500;28;20648;-67
2022/08/30 05:16:16;;;;;;;5.00;2.23;;;;;;;26.08;47.02;95261.91;5048972;28;20196;-67
2022/08/30 05:18:48;;;;;;;16.20;10.53;;;;;;;26.14;46.60;95266.69;5035890;28;20233;-71
2022/08/30 05:21:20;;;;;;;1.90;1.80;;;;;;;26.20;46.68;95262.66;5035400;28;20363;-73
2022/08/30 05:23:48;;;;;;;0.57;0.57;;;;;;;25.95;46.91;95250.41;5035987;28;20259;-73
2022/08/30 05:26:22;;;;;;;0.73;0.67;;;;;;;26.24;46.33;95265.41;5032397;28;20633;-72
2022/08/30 05:28:51;;;;;;;1.07;1.07;;;;;;;25.93;46.84;95266.09;5061834;28;20223;-74
2022/08/30 05:31:19;;;;;;;0.80;0.80;;;;;;;25.89;46.96;95275.97;5066374;28;20222;-71
2022/08/30 05:33:48;;;;;;;0.57;0.57;;;;;;;26.02;46.60;95272.13;5056795;28;20694;-72
2022/08/30 05:36:17;;;;;;;2.53;1.13;;;;;;;26.16;46.69;95267.16;5049972;28;20195;-65
2022/08/30 05:38:44;;;;;;;1.10;1.03;;;;;;;26.13;46.65;95267.81;5066823;28;20226;-67
2022/08/30 05:41:12;;;;;;;0.90;0.83;;;;;;;26.10;46.67;95271.19;5038725;28;20292;-69
2022/08/30 05:43:39;;;;;;;1.83;0.73;;;;;;;26.04;46.83;95267.19;5038532;28;20224;-65
2022/08/30 05:46:09;;;;;;;0.90;0.73;;;;;;;25.96;46.96;95265.44;5042378;28;20201;-67
2022/08/30 05:48:38;;;;;;;2.03;1.07;;;;;;;25.99;47.08;95270.88;5067031;28;20758;-68
2022/08/30 05:51:13;;;;;;;1.33;1.13;;;;;;;25.99;47.21;95270.88;5043581;28;20583;-64
2022/08/30 05:53:40;;;;;;;1.33;1.23;;;;;;;25.93;47.47;95268.78;5041217;28;20196;-70
2022/08/30 05:56:10;;;;;;;1.33;1.17;;;;;;;26.10;46.95;95271.19;5042953;28;20193;-67
2022/08/30 05:58:38;;;;;;;1.57;1.47;;;;;;;26.08;46.98;95268.06;5058357;28;20215;-69
2022/08/30 06:01:16;;;;;;;0.53;0.53;;;;;;;26.19;47.03;95269.13;5048980;28;20246;-68
2022/08/30 06:03:45;;;;;;;2.37;1.87;;;;;;;26.00;47.25;95269.75;5061588;28;20211;-69
2022/08/30 06:06:11;;;;;;;1.00;1.00;;;;;;;26.12;47.26;95271.63;5044857;28;20203;-69
2022/08/30 06:08:38;;;;;;;1.80;1.70;;;;;;;26.26;46.62;95269.31;5068400;28;20261;-70
2022/08/30 06:11:05;;;;;;;0.73;0.73;;;;;;;26.10;47.83;95271.19;5041237;28;20257;-67
2022/08/30 06:13:33;;;;;;;2.53;1.50;;;;;;;26.20;47.66;95276.09;5043941;28;20201;-69
2022/08/30 06:15:59;;;;;;;5.17;2.43;;;;;;;26.12;47.92;95279.69;5066029;28;20269;-67
2022/08/30 06:18:27;;;;;;;2.97;2.23;;;;;;;26.11;48.12;95283.50;5057797;28;20216;-66
2022/08/30 06:20:54;;;;;;;1.47;0.93;;;;;;;26.16;48.98;95279.78;5066016;28;20282;-68
2022/08/30 06:23:21;;;;;;;1.40;1.30;;;;;;;25.88;50.03;95280.56;5059853;28;20353;-66
2022/08/30 06:25:49;;;;;;;0.77;0.77;;;;;;;25.91;50.97;95281.78;5033496;28;20216;-65
2022/08/30 06:28:16;;;;;;;1.87;1.77;;;;;;;26.08;51.25;95283.41;5044094;28;20196;-64
2022/08/30 06:30:43;;;;;;;1.10;1.07;;;;;;;26.15;50.38;95287.06;5056467;28;20220;-65
2022/08/30 06:33:09;;;;;;;2.10;1.83;;;;;;;26.05;48.64;95279.50;5038485;28;20281;-66
2022/08/30 06:35:37;;;;;;;1.10;1.10;;;;;;;25.59;50.30;95306.94;5040103;28;20198;-66
2022/08/30 06:38:23;;;;;;;1.63;1.53;;;;;;;25.82;49.98;95294.59;5039040;28;20227;-63
2022/08/30 06:40:50;;;;;;;2.43;1.77;;;;;;;25.13;51.82;95299.41;5039365;28;20282;-64
2022/08/30 06:43:17;;;;;;;1.30;0.90;;;;;;;25.24;51.47;95298.59;5055250;28;20235;-64
2022/08/30 06:45:44;;;;;;;2.63;1.87;;;;;;;25.05;52.03;95309.91;5047025;28;20201;-66
2022/08/30 06:48:11;;;;;;;1.27;1.27;;;;;;;25.05;52.14;95312.59;5061684;28;20201;-64
2022/08/30 06:50:40;;;;;;;0.80;0.80;;;;;;;25.49;51.30;95297.47;5041867;28;20570;-67
2022/08/30 06:53:09;;;;;;;2.40;2.20;;;;;;;25.39;50.88;95310.56;5057956;28;20303;-64
2022/08/30 06:55:36;;;;;;;0.73;0.73;;;;;;;25.91;50.17;95305.97;5031354;28;20208;-69
2022/08/30 06:58:03;;;;;;;5.67;2.60;;;;;;;25.43;50.63;95295.38;5042439;28;20277;-69
2022/08/30 07:00:30;;;;;;;1.87;1.70;;;;;;;25.02;52.17;95302.53;5052367;28;20266;-69
2022/08/30 07:02:57;;;;;;;1.37;1.33;;;;;;;25.13;51.64;95302.09;5061871;28;20279;-68
2022/08/30 07:05:24;;;;;;;7.63;3.17;;;;;;;25.46;50.05;95290.09;5070425;28;20648;-66
2022/08/30 07:07:54;;;;;;;2.20;1.40;;;;;;;25.95;49.92;95312.19;5059342;28;20196;-69
2022/08/30 07:10:21;;;;;;;1.83;1.53;;;;;;;25.59;51.23;95304.25;5042454;28;20189;-66
2022/08/30 07:12:48;;;;;;;1.53;1.43;;;;;;;25.79;49.97;95314.81;5058216;28;20199;-68
2022/08/30 07:15:15;;;;;;;2.87;2.57;;;;;;;26.01;49.51;95313.50;5071916;28;20200;-67
2022/08/30 07:20:27;;;;;;;1.63;1.53;;;;;;;26.20;49.07;95302.16;5058363;28;20597;-68
2022/08/30 07:23:08;;;;;;;1.93;1.73;;;;;;;26.51;49.13;95292.22;5031588;28;20235;-66
2022/08/30 07:25:39;;;;;;;2.23;1.47;;;;;;;26.35;48.65;95296.78;5045627;28;20200;-68
2022/08/30 07:28:07;;;;;;;1.80;1.70;;;;;;;26.15;48.81;95310.47;5044643;28;20196;-67
2022/08/30 07:30:34;;;;;;;14.23;1.90;;;;;;;26.27;49.00;95296.97;5071865;28;20207;-67
2022/08/30 07:33:01;;;;;;;1.90;1.60;;;;;;;26.23;48.88;95313.00;5067032;28;20258;-69
2022/08/30 07:35:30;;;;;;;0.83;0.83;;;;;;;26.33;49.30;95301.72;5062725;28;20199;-66
2022/08/30 07:37:57;;;;;;;2.13;1.83;;;;;;;25.98;49.63;95311.53;5043172;28;20219;-66
2022/08/30 07:40:25;;;;;;;1.67;1.57;;;;;;;26.16;48.72;95307.44;5061889;28;20200;-68
2022/08/30 07:42:51;;;;;;;2.20;1.67;;;;;;;26.36;48.63;95311.81;5065899;28;20223;-68
2022/08/30 07:45:19;;;;;;;1.33;1.23;;;;;;;26.25;48.69;95302.69;5071447;28;20196;-66
2022/08/30 07:47:45;;;;;;;1.73;1.47;;;;;;;26.06;48.99;95318.66;5056974;28;20652;-69
2022/08/30 07:50:12;;;;;;;8.53;1.90;;;;;;;25.56;50.87;95315.69;5045546;28;20193;-68
2022/08/30 07:52:39;;;;;;;1.43;1.20;;;;;;;25.18;51.89;95317.97;5042778;28;20593;-73
2022/08/30 07:55:07;;;;;;;0.93;0.93;;;;;;;25.08;52.02;95325.34;5040116;28;20235;-72
2022/08/30 07:57:34;;;;;;;2.50;1.97;;;;;;;25.19;51.55;95319.50;5045654;28;20309;-68
2022/08/30 08:00:01;;;;;;;2.60;1.93;;;;;;;25.92;50.02;95318.25;5056606;28;20603;-68
2022/08/30 08:02:39;;;;;;;1.27;1.00;;;;;;;25.86;49.79;95335.72;5058075;28;20443;-74
2022/08/30 08:05:08;;;;;;;1.10;1.10;;;;;;;25.65;50.07;95340.47;5047445;28;20647;-70
2022/08/30 08:07:39;;;;;;;1.30;1.27;;;;;;;25.81;49.66;95341.34;5065889;28;20724;-68
2022/08/30 08:10:06;;;;;;;0.97;0.87;;;;;;;25.72;49.85;95335.31;5063923;28;20215;-71
2022/08/30 08:12:33;;;;;;;4.27;2.37;;;;;;;25.87;49.77;95323.88;5042984;28;20261;-72
2022/08/30 08:15:01;;;;;;;2.87;2.30;;;;;;;26.29;48.98;95333.13;5070911;28;20192;-66
2022/08/30 08:17:33;;;;;;;3.97;1.83;;;;;;;26.36;48.57;95327.94;5070823;28;20280;-73
2022/08/30 08:20:00;;;;;;;2.83;1.93;;;;;;;25.66;50.06;95325.94;5071235;28;20220;-73
2022/08/30 08:22:27;;;;;;;2.37;1.77;;;;;;;26.13;49.35;95328.84;5053126;28;20208;-69
2022/08/30 08:24:54;;;;;;;2.83;1.73;;;;;;;25.74;49.80;95338.44;5046925;28;20195;-71
2022/08/30 08:27:23;;;;;;;0.93;0.93;;;;;;;25.95;49.27;95328.28;5042649;28;20197;-70
2022/08/30 08:29:50;;;;;;;1.80;1.70;;;;;;;26.18;49.28;95315.94;5056154;28;20255;-71
2022/08/30 08:32:17;;;;;;;1.27;1.20;;;;;;;26.08;49.42;95324.47;5056325;28;20196;-68
2022/08/30 08:34:44;;;;;;;3.23;1.73;;;;;;;25.87;50.44;95326.56;5032668;28;20280;-72
2022/08/30 08:37:11;;;;;;;1.33;1.23;;;;;;;25.06;52.11;95330.25;5055640;28;20191;-70
2022/08/30 08:39:37;;;;;;;1.20;1.17;;;;;;;25.18;52.19;95332.16;5072841;28;20223;-68
2022/08/30 08:42:14;;;;;;;0.60;0.60;;;;;;;25.33;50.98;95333.38;5073106;28;20196;-71
2022/08/30 08:44:53;;;;;;;1.53;1.43;;;;;;;25.63;50.61;95326.63;5055817;28;20207;-67
2022/08/30 08:47:47;;;;;;;2.70;2.20;;;;;;;26.03;49.31;95330.84;5050581;28;20227;-74
2022/08/30 08:50:19;;;;;;;0.50;0.50;;;;;;;25.72;49.82;95330.75;5031489;28;20192;-67
2022/08/30 08:55:56;;;;;;;2.20;2.03;;;;;;;25.93;50.05;95327.84;5048583;28;20197;-67
2022/08/30 08:58:29;;;;;;;3.30;1.73;;;;;;;26.31;48.94;95328.19;5043638;28;20262;-70
2022/08/30 09:00:57;;;;;;;1.30;1.30;;;;;;;26.32;49.62;95328.94;5056635;28;20204;-72
2022/08/30 09:03:27;;;;;;;4.40;2.77;;;;;;;26.41;49.94;95333.03;5043842;28;20667;-72
2022/08/30 09:05:56;;;;;;;1.27;1.20;;;;;;;26.70;48.86;95329.19;5035827;28;20605;-67
2022/08/30 09:08:23;;;;;;;1.83;1.73;;;;;;;26.51;48.71;95324.50;5061793;28;20229;-71
2022/08/30 09:11:00;;;;;;;2.87;2.40;;;;;;;26.64;47.83;95331.31;5061444;28;20196;-65
2022/08/30 09:13:27;;;;;;;2.00;1.80;;;;;;;26.88;47.66;95331.19;5053178;28;20207;-69
2022/08/30 09:15:57;;;;;;;1.67;1.40;;;;;;;27.03;47.37;95335.00;5069996;28;20192;-69
2022/08/30 09:18:45;;;;;;;1.87;1.73;;;;;;;27.20;47.31;95331.16;5070340;28;20207;-72
2022/08/30 09:21:24;;;;;;;2.57;2.37;;;;;;;27.32;47.88;95331.06;5073282;28;20200;-67
2022/08/30 09:24:06;;;;;;;1.70;1.60;;;;;;;27.37;46.67;95328.13;5045862;28;20200;-67
2022/08/30 09:26:36;;;;;;;0.90;0.90;;;;;;;27.75;45.35;95318.22;5045185;28;20254;-73
2022/08/30 09:29:03;;;;;;;1.00;1.00;;;;;;;28.08;44.21;95319.66;5041800;28;20741;-68
2022/08/30 09:31:45;;;;;;;0.80;0.80;;;;;;;28.28;44.48;95326.56;5063258;28;20201;-69
2022/08/30 09:34:19;;;;;;;2.07;1.70;;;;;;;28.65;44.59;95323.03;5064196;28;20311;-66
2022/08/30 09:36:50;;;;;;;13.13;3.10;;;;;;;28.83;43.21;95334.91;5069887;28;20226;-72
2022/08/30 09:39:29;;;;;;;1.50;0.90;;;;;;;28.91;42.66;95317.69;5041418;28;20232;-75
2022/08/30 09:42:13;;;;;;;3.27;1.10;;;;;;;29.07;42.53;95311.41;5061438;28;20198;-70
2022/08/30 09:44:40;;;;;;;1.50;1.40;;;;;;;28.94;43.50;95308.88;5063486;28;20195;-73
2022/08/30 09:47:37;;;;;;;0.97;0.97;;;;;;;29.17;42.94;95310.78;5041104;28;20193;-73
2022/08/30 09:50:12;;;;;;;1.97;1.00;;;;;;;29.41;42.33;95315.78;5044177;28;20197;-73
2022/08/30 09:52:57;;;;;;;7.13;2.33;;;;;;;29.63;43.16;95309.53;5053843;28;20286;-75
2022/08/30 09:56:03;;;;;;;2.07;1.87;;;;;;;30.20;41.30;95305.63;5060708;28;20201;-77
2022/08/30 09:58:57;;;;;;;1.30;1.20;;;;;;;30.66;40.13;95304.94;5049489;28;20227;-77
2022/08/30 10:01:30;;;;;;;1.33;1.27;;;;;;;30.48;40.10;95304.00;5067642;28;20223;-71
2022/08/30 10:04:40;;;;;;;2.67;1.80;;;;;;;30.55;39.96;95298.66;5065375;28;20196;-78
2022/08/30 10:07:26;;;;;;;2.40;1.57;;;;;;;30.61;39.84;95289.06;5055721;28;20291;-78
2022/08/30 10:10:16;;;;;;;1.27;1.17;;;;;;;30.91;39.18;95286.25;5066970;28;20227;-73
2022/08/30 10:12:58;;;;;;;1.53;1.43;;;;;;;30.70;39.59;95284.13;5063303;28;20193;-76
2022/08/30 10:15:39;;;;;;;1.73;1.63;;;;;;;30.47;40.60;95274.63;5062830;28;20304;-80
2022/08/30 10:18:23;;;;;;;1.43;1.33;;;;;;;30.30;40.73;95276.00;5065738;28;20200;-75
2022/08/30 10:21:02;;;;;;;1.73;1.63;;;;;;;30.10;41.40;95277.31;5070195;28;20261;-68
2022/08/30 10:23:41;;;;;;;2.40;1.93;;;;;;;30.31;40.62;95269.44;5052757;28;20203;-68
2022/08/30 10:26:27;;;;;;;1.33;1.23;;;;;;;29.66;40.81;95270.97;5072726;28;20598;-78
2022/08/30 10:29:30;;;;;;;1.30;1.23;;;;;;;30.37;40.08;95272.59;5067766;28;20195;-73
2022/08/30 10:32:04;;;;;;;1.03;1.03;;;;;;;30.12;40.91;95266.91;5043546;28;20560;-75
2022/08/30 10:34:39;;;;;;;1.30;0.80;;;;;;;30.29;41.27;95263.63;5067600;28;20200;-73
2022/08/30 10:37:22;;;;;;;1.53;1.13;;;;;;;30.39;40.05;95260.25;5042781;28;20201;-77
2022/08/30 10:39:54;;;;;;;1.43;1.03;;;;;;;30.65;40.34;95251.22;5051729;28;20228;-76
2022/08/30 10:42:31;;;;;;;3.13;2.47;;;;;;;30.99;39.03;95252.66;5064892;28;20524;-73
2022/08/30 10:45:11;;;;;;;1.37;1.00;;;;;;;30.81;38.92;95252.53;5045355;28;20579;-75
2022/08/30 10:48:13;;;;;;;1.43;1.20;;;;;;;31.08;38.95;95252.31;5072690;28;20206;-76
2022/08/30 10:50:44;;;;;;;1.90;1.50;;;;;;;31.01;38.61;95244.16;5037205;28;20299;-74
2022/08/30 10:53:28;;;;;;;2.77;1.17;;;;;;;31.18;38.46;95254.34;5050946;28;20228;-74
2022/08/30 10:56:03;;;;;;;1.00;1.00;;;;;;;30.99;38.52;95257.28;5056801;28;20616;-71
2022/08/30 10:58:31;;;;;;;1.03;1.03;;;;;;;31.00;39.08;95256.16;5048074;28;20207;-70
2022/08/30 11:01:10;;;;;;;1.77;1.67;;;;;;;31.01;38.09;95249.56;5065789;28;20196;-73
2022/08/30 11:04:01;;;;;;;2.60;1.13;;;;;;;31.07;38.33;95253.50;5038281;28;20241;-71
2022/08/30 11:06:42;;;;;;;6.40;2.20;;;;;;;31.27;38.71;95252.06;5063037;28;20188;-74
2022/08/30 11:09:25;;;;;;;0.90;0.90;;;;;;;30.98;38.02;95247.63;5058304;28;20599;-72
2022/08/30 11:12:31;;;;;;;3.67;1.83;;;;;;;31.42;37.39;95242.91;5072413;28;20695;-76
2022/08/30 11:15:00;;;;;;;1.47;1.27;;;;;;;31.40;37.73;95239.81;5052568;28;20249;-69
2022/08/30 11:17:31;;;;;;;0.70;0.70;;;;;;;31.08;38.04;95230.66;5043521;28;20259;-68
2022/08/30 11:20:01;;;;;;;1.50;1.40;;;;;;;31.00;37.21;95239.91;5053663;28;20235;-71
2022/08/30 11:22:30;;;;;;;1.93;1.83;;;;;;;30.94;35.89;95233.28;5048404;28;20200;-70
2022/08/30 11:25:11;;;;;;;2.07;1.50;;;;;;;31.65;35.99;95224.44;5042902;28;20224;-70
2022/08/30 11:27:41;;;;;;;0.83;0.83;;;;;;;31.64;35.12;95217.47;5034420;28;20486;-70
2022/08/30 11:30:23;;;;;;;2.93;2.07;;;;;;;31.59;35.28;95215.09;5060566;28;20206;-73
2022/08/30 11:32:59;;;;;;;1.37;1.27;;;;;;;31.49;35.59;95216.63;5068370;28;20570;-71
2022/08/30 11:35:51;;;;;;;2.17;1.97;;;;;;;31.67;35.60;95219.41;5052011;28;20200;-70
2022/08/30 11:38:27;;;;;;;0.83;0.83;;;;;;;31.59;35.78;95220.53;5044272;28;20676;-69
2022/08/30 11:40:55;;;;;;;2.07;1.33;;;;;;;31.71;34.79;95228.34;5071449;28;20219;-71
2022/08/30 11:43:34;;;;;;;1.80;1.47;;;;;;;32.22;34.35;95220.75;5045421;28;20291;-75
2022/08/30 11:46:12;;;;;;;1.20;1.10;;;;;;;32.37;34.45;95211.44;5059674;28;20211;-71
2022/08/30 11:48:43;;;;;;;0.90;0.90;;;;;;;32.93;33.24;95204.50;5062181;28;20295;-71
2022/08/30 11:51:51;;;;;;;3.93;2.80;;;;;;;33.56;31.94;95199.72;5042226;28;20200;-70
2022/08/30 11:54:47;;;;;;;0.63;0.63;;;;;;;33.44;32.34;95202.06;5071337;28;20200;-71
2022/08/30 11:57:44;;;;;;;3.20;1.73;;;;;;;33.07;33.26;95205.28;5032515;28;20693;-71
2022/08/30 12:00:36;;;;;;;1.07;1.07;;;;;;;33.37;32.58;95196.66;5031679;28;20217;-70